Terminal Aerodrome Forecast
Issued by NWS

Home | Current Version | Previous Version | Graphics & Text | Print | Product List | Glossary On
Versions: 1 2 3 4 5 6 7 8 9 10 11 12 13 14 15 16
000
FTUS43 KMPX 260655 AAA
TAFAXN
TAF AMD
KAXN 260655Z 2607/2706 28006KT P6SM SCT007 OVC012
      TEMPO 2607/2610 1 1/2SM -SN BR
     FM261000 22004KT 2SM -SN BKN007 OVC012
      TEMPO 2610/2614 1SM -SN OVC004
     FM261400 30012KT P6SM BKN010 OVC035
     FM261800 31010KT P6SM SCT020
     FM270200 VRB03KT P6SM BKN060 OVC100=

USA.gov is the U.S. government's official web portal to all federal, state and local government web resources and services.